createdAt,value
2022-07-26T00:01:38.334Z,19.57
2022-07-26T00:04:09.202Z,19.57
2022-07-26T00:06:40.946Z,19.55
2022-07-26T00:09:11.643Z,19.58
2022-07-26T00:11:42.544Z,19.58
2022-07-26T00:14:13.492Z,19.58
2022-07-26T00:16:44.142Z,19.52
2022-07-26T00:19:14.618Z,19.50
2022-07-26T00:21:45.384Z,19.44
2022-07-26T00:24:15.979Z,19.41
2022-07-26T00:26:46.440Z,19.35
2022-07-26T00:29:17.184Z,19.39
2022-07-26T00:31:47.793Z,19.34
2022-07-26T00:34:18.348Z,19.28
2022-07-26T00:36:48.913Z,19.27
2022-07-26T00:39:19.386Z,19.32
2022-07-26T00:41:49.885Z,19.30
2022-07-26T00:44:20.495Z,19.30
2022-07-26T00:46:51.154Z,19.21
2022-07-26T00:49:21.738Z,19.23
2022-07-26T00:51:52.389Z,19.20
2022-07-26T00:54:22.809Z,19.18
2022-07-26T00:56:55.272Z,19.17
2022-07-26T00:59:26.341Z,19.17
2022-07-26T01:01:57.097Z,19.18
2022-07-26T01:04:28.689Z,19.23
2022-07-26T01:06:59.981Z,19.24
2022-07-26T01:09:31.201Z,19.23
2022-07-26T01:12:03.911Z,19.23
2022-07-26T01:14:34.392Z,19.23
2022-07-26T01:17:05.038Z,19.23
2022-07-26T01:19:35.472Z,19.24
2022-07-26T01:22:07.160Z,19.20
2022-07-26T01:24:40.360Z,19.17
2022-07-26T01:27:11.954Z,19.07
2022-07-26T01:29:42.488Z,19.03
2022-07-26T01:32:13.076Z,18.96
2022-07-26T01:34:43.566Z,18.90
2022-07-26T01:37:14.215Z,18.87
2022-07-26T01:39:46.983Z,18.82
2022-07-26T01:42:17.480Z,18.70
2022-07-26T01:44:48.054Z,18.66
2022-07-26T01:47:18.629Z,18.55
2022-07-26T01:49:49.164Z,18.49
2022-07-26T01:52:20.149Z,18.51
2022-07-26T01:54:50.666Z,18.45
2022-07-26T01:57:21.352Z,18.39
2022-07-26T01:59:51.793Z,18.41
2022-07-26T02:02:22.510Z,18.36
2022-07-26T02:05:03.734Z,18.31
2022-07-26T02:07:43.100Z,18.29
2022-07-26T02:10:16.240Z,18.28
2022-07-26T02:12:46.818Z,18.25
2022-07-26T02:15:17.745Z,18.12
2022-07-26T02:17:48.273Z,18.02
2022-07-26T02:20:19.026Z,17.88
2022-07-26T02:22:49.528Z,17.85
2022-07-26T02:25:20.022Z,17.81
2022-07-26T02:27:50.574Z,17.71
2022-07-26T02:30:21.132Z,17.69
2022-07-26T02:32:51.932Z,17.66
2022-07-26T02:35:22.475Z,17.67
2022-07-26T02:37:52.979Z,17.67
2022-07-26T02:40:23.724Z,17.66
2022-07-26T02:42:54.319Z,17.70
2022-07-26T02:45:24.938Z,17.77
2022-07-26T02:47:57.447Z,17.71
2022-07-26T02:50:29.394Z,17.71
2022-07-26T02:53:00.263Z,17.63
2022-07-26T02:55:30.833Z,17.67
2022-07-26T02:58:01.404Z,17.64
2022-07-26T03:00:31.866Z,17.59
2022-07-26T03:03:02.384Z,17.51
2022-07-26T03:05:32.984Z,17.50
2022-07-26T03:08:04.055Z,17.50
2022-07-26T03:10:34.815Z,17.41
2022-07-26T03:13:05.403Z,17.44
2022-07-26T03:15:35.953Z,17.40
2022-07-26T03:18:06.579Z,17.46
2022-07-26T03:20:37.125Z,17.47
2022-07-26T03:23:07.630Z,17.40
2022-07-26T03:25:38.625Z,17.37
2022-07-26T03:28:09.343Z,17.39
2022-07-26T03:30:39.726Z,17.39
2022-07-26T03:33:10.353Z,17.33
2022-07-26T03:35:40.780Z,17.30
2022-07-26T03:38:12.266Z,17.26
2022-07-26T03:40:42.087Z,17.29
2022-07-26T03:43:12.520Z,17.36
2022-07-26T03:45:44.309Z,17.30
2022-07-26T03:48:14.999Z,17.27
2022-07-26T03:50:45.586Z,17.26
2022-07-26T03:53:16.642Z,17.26
2022-07-26T03:56:05.035Z,17.23
2022-07-26T03:58:35.686Z,17.19
2022-07-26T04:01:07.996Z,17.19
2022-07-26T04:03:38.590Z,17.22
2022-07-26T04:06:11.021Z,17.18
2022-07-26T04:08:42.902Z,17.12
2022-07-26T04:11:13.718Z,17.18
2022-07-26T04:13:44.239Z,17.18
2022-07-26T04:16:17.141Z,17.13
2022-07-26T04:18:47.637Z,17.23
2022-07-26T04:21:18.726Z,17.27
2022-07-26T04:23:51.323Z,17.23
2022-07-26T04:26:23.142Z,17.24
2022-07-26T04:28:53.763Z,17.23
2022-07-26T04:31:27.357Z,17.27
2022-07-26T04:34:05.875Z,17.27
2022-07-26T04:36:36.614Z,17.30
2022-07-26T04:39:07.178Z,17.30
2022-07-26T04:41:39.193Z,17.31
2022-07-26T04:44:10.768Z,17.30
2022-07-26T04:46:44.853Z,17.34
2022-07-26T04:49:15.831Z,17.33
2022-07-26T04:51:46.322Z,17.34
2022-07-26T04:54:21.883Z,17.31
2022-07-26T04:56:52.388Z,17.30
2022-07-26T04:59:22.309Z,17.30
2022-07-26T05:01:52.901Z,17.31
2022-07-26T05:04:23.521Z,17.30
2022-07-26T05:06:53.331Z,17.33
2022-07-26T05:09:24.181Z,17.39
2022-07-26T05:11:54.694Z,17.34
2022-07-26T05:14:24.465Z,17.34
2022-07-26T05:16:54.684Z,17.31
2022-07-26T05:19:27.549Z,17.33
2022-07-26T05:21:57.806Z,17.40
2022-07-26T05:24:28.371Z,17.43
2022-07-26T05:26:58.974Z,17.41
2022-07-26T05:29:29.474Z,17.39
2022-07-26T05:31:59.937Z,17.40
2022-07-26T05:34:30.618Z,17.34
2022-07-26T05:37:01.366Z,17.39
2022-07-26T05:39:32.676Z,17.36
2022-07-26T05:42:03.282Z,17.34
2022-07-26T05:44:33.869Z,17.31
2022-07-26T05:47:04.678Z,17.31
2022-07-26T05:49:40.465Z,17.31
2022-07-26T05:52:12.416Z,17.31
2022-07-26T05:54:42.969Z,17.30
2022-07-26T05:57:13.553Z,17.30
2022-07-26T05:59:44.154Z,17.26
2022-07-26T06:02:14.858Z,17.23
2022-07-26T06:04:47.332Z,17.24
2022-07-26T06:07:18.776Z,17.26
2022-07-26T06:09:49.804Z,17.24
2022-07-26T06:12:20.342Z,17.24
2022-07-26T06:14:50.913Z,17.27
2022-07-26T06:17:21.458Z,17.23
2022-07-26T06:19:52.078Z,17.27
2022-07-26T06:22:22.501Z,17.29
2022-07-26T06:24:53.214Z,17.29
2022-07-26T06:27:23.708Z,17.30
2022-07-26T06:29:54.746Z,17.30
2022-07-26T06:32:25.194Z,17.29
2022-07-26T06:34:55.747Z,17.29
2022-07-26T06:37:26.181Z,17.24
2022-07-26T06:39:56.865Z,17.23
2022-07-26T06:42:27.770Z,17.24
2022-07-26T06:44:59.100Z,17.26
2022-07-26T06:47:30.138Z,17.26
2022-07-26T06:50:00.564Z,17.27
2022-07-26T06:52:31.170Z,17.29
2022-07-26T06:55:03.142Z,17.30
2022-07-26T06:57:33.617Z,17.29
2022-07-26T07:00:16.113Z,17.34
2022-07-26T07:02:46.895Z,17.33
2022-07-26T07:05:17.578Z,17.34
2022-07-26T07:07:48.173Z,17.34
2022-07-26T07:10:19.769Z,17.34
2022-07-26T07:12:53.520Z,17.36
2022-07-26T07:15:23.391Z,17.37
2022-07-26T07:17:53.778Z,17.36
2022-07-26T07:20:24.261Z,17.37
2022-07-26T07:22:54.691Z,17.43
2022-07-26T07:25:30.692Z,17.40
2022-07-26T07:28:01.717Z,17.36
2022-07-26T07:30:31.989Z,17.31
2022-07-26T07:33:03.590Z,17.29
2022-07-26T07:35:34.201Z,17.27
2022-07-26T07:38:06.780Z,17.27
2022-07-26T07:40:37.708Z,17.29
2022-07-26T07:43:08.184Z,17.34
2022-07-26T07:45:38.691Z,17.36
2022-07-26T07:48:09.277Z,17.40
2022-07-26T07:50:39.809Z,17.43
2022-07-26T07:53:10.157Z,17.39
2022-07-26T07:55:43.929Z,17.36
2022-07-26T07:58:18.996Z,17.39
2022-07-26T08:00:50.042Z,17.44
2022-07-26T08:03:21.034Z,17.43
2022-07-26T08:05:51.754Z,17.43
2022-07-26T08:08:22.914Z,17.37
2022-07-26T08:10:54.628Z,17.41
2022-07-26T08:13:27.260Z,17.43
2022-07-26T08:15:59.449Z,17.40
2022-07-26T08:18:31.400Z,17.47
2022-07-26T08:21:02.023Z,17.51
2022-07-26T08:23:32.647Z,17.55
2022-07-26T08:26:06.652Z,17.51
2022-07-26T08:28:47.233Z,17.46
2022-07-26T08:31:21.456Z,17.37
2022-07-26T08:33:51.911Z,17.31
2022-07-26T08:36:22.390Z,17.34
2022-07-26T08:38:53.795Z,17.41
2022-07-26T08:41:24.594Z,17.37
2022-07-26T08:43:55.274Z,17.40
2022-07-26T08:46:27.982Z,17.39
2022-07-26T08:48:58.946Z,17.39
2022-07-26T08:51:29.511Z,17.33
2022-07-26T08:54:05.844Z,17.39
2022-07-26T08:56:39.929Z,17.49
2022-07-26T08:59:21.296Z,17.59
2022-07-26T09:02:07.500Z,17.63
2022-07-26T09:04:44.691Z,17.67
2022-07-26T09:07:20.476Z,17.57
2022-07-26T09:10:12.343Z,17.51
2022-07-26T09:12:44.214Z,17.50
2022-07-26T09:15:22.796Z,17.47
2022-07-26T09:17:57.468Z,17.43
2022-07-26T09:20:33.368Z,17.40
2022-07-26T09:23:15.162Z,17.39
2022-07-26T09:25:47.366Z,17.37
2022-07-26T09:28:32.361Z,17.36
2022-07-26T09:31:05.600Z,17.37
2022-07-26T09:33:51.155Z,17.47
2022-07-26T09:36:22.864Z,17.44
2022-07-26T09:39:00.258Z,17.37
2022-07-26T09:41:33.761Z,17.39
2022-07-26T09:44:07.492Z,17.36
2022-07-26T09:46:58.450Z,17.36
2022-07-26T09:49:40.710Z,17.40
2022-07-26T09:52:22.213Z,17.44
2022-07-26T09:54:52.951Z,17.47
2022-07-26T09:57:23.456Z,17.53
2022-07-26T09:59:54.498Z,17.55
2022-07-26T10:02:24.992Z,17.57
2022-07-26T10:04:55.587Z,17.49
2022-07-26T10:07:26.249Z,17.43
2022-07-26T10:10:06.092Z,17.47
2022-07-26T10:12:37.684Z,17.44
2022-07-26T10:15:09.298Z,17.49
2022-07-26T10:17:44.089Z,17.50
2022-07-26T10:20:45.713Z,17.43
2022-07-26T10:23:40.665Z,17.49
2022-07-26T10:26:13.945Z,17.54
2022-07-26T10:28:44.558Z,17.60
2022-07-26T10:31:28.296Z,17.53
2022-07-26T10:34:00.564Z,17.53
2022-07-26T10:36:39.290Z,17.54
2022-07-26T10:39:14.312Z,17.51
2022-07-26T10:41:58.578Z,17.50
2022-07-26T10:44:31.323Z,17.49
2022-07-26T10:47:05.244Z,17.54
2022-07-26T10:49:46.757Z,17.64
2022-07-26T10:52:27.562Z,17.54
2022-07-26T10:55:07.700Z,17.53
2022-07-26T10:57:44.450Z,17.55
2022-07-26T11:00:24.148Z,17.57
2022-07-26T11:03:01.528Z,17.51
2022-07-26T11:05:35.957Z,17.63
2022-07-26T11:08:11.409Z,17.54
2022-07-26T11:10:50.383Z,17.67
2022-07-26T11:13:23.053Z,17.64
2022-07-26T11:16:01.287Z,17.60
2022-07-26T11:18:37.562Z,17.67
2022-07-26T11:21:14.152Z,17.73
2022-07-26T11:23:47.673Z,17.71
2022-07-26T11:26:24.644Z,17.67
2022-07-26T11:29:06.342Z,17.71
2022-07-26T11:31:55.576Z,17.80
2022-07-26T11:34:34.544Z,17.85
2022-07-26T11:37:06.851Z,17.91
2022-07-26T11:39:38.270Z,18.01
2022-07-26T11:42:11.353Z,17.98
2022-07-26T11:44:46.453Z,17.95
2022-07-26T11:47:25.517Z,18.05
2022-07-26T11:52:47.681Z,18.08
2022-07-26T11:55:31.106Z,18.11
2022-07-26T11:58:11.520Z,18.15
2022-07-26T12:00:42.069Z,18.13
2022-07-26T12:03:12.611Z,18.13
2022-07-26T12:05:43.587Z,18.16
2022-07-26T12:08:14.176Z,18.18
2022-07-26T12:10:44.763Z,18.21
2022-07-26T12:13:17.523Z,18.29
2022-07-26T12:15:53.616Z,18.39
2022-07-26T12:18:26.144Z,18.38
2022-07-26T12:21:08.005Z,18.39
2022-07-26T12:23:50.055Z,18.42
2022-07-26T12:26:25.571Z,18.32
2022-07-26T12:28:57.263Z,18.36
2022-07-26T12:31:33.202Z,18.41
2022-07-26T12:34:03.916Z,18.46
2022-07-26T12:36:36.693Z,18.51
2022-07-26T12:39:07.799Z,18.56
2022-07-26T12:41:42.091Z,18.62
2022-07-26T12:44:14.145Z,18.64
2022-07-26T12:46:48.666Z,18.66
2022-07-26T13:00:54.257Z,18.72
2022-07-26T13:03:25.241Z,18.87
2022-07-26T13:05:55.983Z,18.84
2022-07-26T13:08:26.482Z,18.79
2022-07-26T13:11:00.074Z,18.76
2022-07-26T13:13:31.437Z,18.67
2022-07-26T13:16:01.877Z,18.73
2022-07-26T13:18:32.439Z,18.79
2022-07-26T13:21:03.090Z,18.82
2022-07-26T13:23:35.068Z,18.77
2022-07-26T13:26:08.414Z,18.80
2022-07-26T13:28:41.795Z,18.76
2022-07-26T13:31:14.093Z,18.74
2022-07-26T13:33:44.944Z,18.94
2022-07-26T13:36:15.582Z,19.18
2022-07-26T13:38:46.074Z,19.31
2022-07-26T13:41:16.567Z,19.27
2022-07-26T13:43:47.591Z,19.41
2022-07-26T13:46:18.288Z,19.62
2022-07-26T13:49:00.520Z,19.74
2022-07-26T13:51:52.632Z,19.81
2022-07-26T13:54:24.730Z,19.89
2022-07-26T13:56:56.029Z,20.06
2022-07-26T13:59:27.632Z,20.30
2022-07-26T14:01:59.218Z,20.41
2022-07-26T14:04:29.945Z,20.43
2022-07-26T14:07:00.474Z,20.54
2022-07-26T14:09:30.900Z,20.30
2022-07-26T14:12:01.603Z,20.24
2022-07-26T14:14:32.347Z,20.40
2022-07-26T14:17:02.963Z,20.29
2022-07-26T14:19:33.579Z,20.23
2022-07-26T14:22:04.318Z,20.36
2022-07-26T14:24:34.787Z,20.57
2022-07-26T14:27:05.834Z,20.73
2022-07-26T14:29:36.357Z,20.75
2022-07-26T14:32:07.137Z,20.61
2022-07-26T14:34:37.706Z,20.63
2022-07-26T14:37:15.254Z,20.41
2022-07-26T14:39:59.390Z,20.70
2022-07-26T14:42:30.173Z,20.54
2022-07-26T14:45:00.834Z,20.75
2022-07-26T14:47:31.280Z,20.90
2022-07-26T14:50:06.567Z,20.95
2022-07-26T14:52:47.328Z,20.95
2022-07-26T14:55:24.838Z,21.02
2022-07-26T14:57:56.021Z,21.18
2022-07-26T15:00:26.519Z,21.29
2022-07-26T15:02:57.604Z,21.45
2022-07-26T15:05:29.134Z,21.53
2022-07-26T15:08:04.138Z,21.47
2022-07-26T15:10:36.513Z,21.52
2022-07-26T15:13:09.148Z,21.70
2022-07-26T15:15:39.593Z,21.92
2022-07-26T15:18:10.527Z,22.18
2022-07-26T15:20:42.477Z,22.44
2022-07-26T15:23:13.476Z,22.33
2022-07-26T15:25:43.971Z,22.40
2022-07-26T15:28:14.857Z,22.67
2022-07-26T15:30:45.385Z,22.61
2022-07-26T15:33:21.527Z,22.71
2022-07-26T15:35:54.474Z,22.95
2022-07-26T15:38:25.090Z,22.95
2022-07-26T15:40:55.557Z,22.86
2022-07-26T15:43:48.986Z,23.09
2022-07-26T15:46:18.365Z,23.31
2022-07-26T15:48:50.111Z,23.27
2022-07-26T15:51:22.732Z,23.42
2022-07-26T15:53:53.982Z,23.29
2022-07-26T15:56:24.445Z,23.45
2022-07-26T15:58:55.044Z,23.57
2022-07-26T16:01:25.610Z,23.61
2022-07-26T16:03:56.360Z,23.82
2022-07-26T16:06:26.778Z,23.82
2022-07-26T16:09:15.865Z,23.93
2022-07-26T16:11:48.434Z,23.88
2022-07-26T16:14:19.301Z,24.04
2022-07-26T16:16:50.667Z,23.98
2022-07-26T16:19:21.307Z,24.18
2022-07-26T16:21:51.960Z,24.53
2022-07-26T16:24:22.719Z,24.35
2022-07-26T16:26:54.003Z,24.19
2022-07-26T16:29:25.367Z,24.42
2022-07-26T16:31:57.431Z,24.66
2022-07-26T16:34:28.777Z,25.04
2022-07-26T16:36:59.286Z,24.56
2022-07-26T16:39:30.190Z,24.69
2022-07-26T16:42:04.702Z,25.04
2022-07-26T16:44:38.215Z,25.24
2022-07-26T16:47:08.825Z,25.79
2022-07-26T16:49:39.434Z,25.78
2022-07-26T16:52:09.943Z,25.95
2022-07-26T16:54:40.520Z,26.32
2022-07-26T16:57:11.254Z,26.79
2022-07-26T16:59:41.828Z,27.34
2022-07-26T17:02:12.604Z,27.90
2022-07-26T17:04:43.168Z,28.17
2022-07-26T17:07:28.867Z,28.75
2022-07-26T17:09:59.418Z,28.94
2022-07-26T17:12:29.925Z,29.62
2022-07-26T17:15:00.579Z,28.64
2022-07-26T17:17:31.156Z,28.90
2022-07-26T17:20:01.665Z,29.64
2022-07-26T17:22:32.203Z,30.07
2022-07-26T17:25:02.924Z,30.11
2022-07-26T17:27:33.406Z,29.85
2022-07-26T17:30:07.081Z,29.90
2022-07-26T17:32:39.322Z,30.80
2022-07-26T17:35:10.618Z,30.28
2022-07-26T17:37:41.126Z,30.58
2022-07-26T17:40:12.733Z,30.54
2022-07-26T17:42:43.159Z,30.28
2022-07-26T17:45:13.736Z,30.97
2022-07-26T17:47:44.203Z,29.67
2022-07-26T17:50:35.383Z,27.10
2022-07-26T17:53:05.749Z,27.45
2022-07-26T17:55:36.426Z,28.74
2022-07-26T17:58:06.962Z,28.96
2022-07-26T18:00:38.065Z,27.61
2022-07-26T18:03:08.488Z,26.46
2022-07-26T18:05:41.432Z,25.82
2022-07-26T18:08:13.273Z,25.23
2022-07-26T18:10:47.565Z,24.97
2022-07-26T18:13:21.032Z,25.00
2022-07-26T18:15:52.251Z,25.02
2022-07-26T18:18:23.062Z,24.97
2022-07-26T18:20:53.944Z,24.73
2022-07-26T18:23:24.570Z,24.51
2022-07-26T18:25:55.146Z,24.59
2022-07-26T18:28:26.121Z,24.47
2022-07-26T18:30:57.647Z,24.38
2022-07-26T18:33:28.572Z,24.21
2022-07-26T18:36:02.891Z,24.19
2022-07-26T18:38:33.414Z,24.18
2022-07-26T18:41:04.051Z,24.14
2022-07-26T18:43:35.241Z,24.17
2022-07-26T18:46:06.320Z,24.14
2022-07-26T18:48:37.405Z,24.01
2022-07-26T18:51:12.572Z,23.96
2022-07-26T18:53:43.835Z,23.84
2022-07-26T18:56:14.731Z,23.77
2022-07-26T18:58:45.391Z,23.80
2022-07-26T19:01:15.942Z,23.81
2022-07-26T19:03:46.724Z,23.84
2022-07-26T19:06:17.258Z,23.78
2022-07-26T19:08:47.757Z,23.77
2022-07-26T19:11:18.324Z,23.75
2022-07-26T19:13:48.906Z,23.68
2022-07-26T19:16:20.137Z,23.56
2022-07-26T19:18:55.375Z,23.49
2022-07-26T19:21:27.697Z,23.42
2022-07-26T19:23:58.185Z,23.46
2022-07-26T19:26:28.886Z,23.40
2022-07-26T19:28:59.445Z,23.33
2022-07-26T19:31:30.493Z,23.24
2022-07-26T19:34:01.135Z,23.19
2022-07-26T19:36:31.673Z,23.12
2022-07-26T19:39:02.533Z,23.10
2022-07-26T19:41:33.300Z,23.10
2022-07-26T19:44:04.011Z,22.96
2022-07-26T19:46:34.706Z,22.96
2022-07-26T19:49:06.171Z,22.96
2022-07-26T19:51:36.582Z,22.91
2022-07-26T19:54:07.614Z,22.84
2022-07-26T19:56:38.122Z,22.79
2022-07-26T19:59:09.003Z,22.82
2022-07-26T20:01:39.713Z,22.82
2022-07-26T20:04:10.688Z,22.73
2022-07-26T20:06:41.163Z,22.71
2022-07-26T20:09:11.952Z,22.69
2022-07-26T20:11:44.088Z,22.58
2022-07-26T20:14:14.569Z,22.52
2022-07-26T20:16:45.397Z,22.47
2022-07-26T20:19:16.054Z,22.38
2022-07-26T20:21:46.860Z,22.33
2022-07-26T20:24:18.620Z,22.21
2022-07-26T20:26:49.264Z,22.11
2022-07-26T20:29:19.981Z,22.13
2022-07-26T20:31:51.037Z,22.06
2022-07-26T20:34:21.508Z,22.00
2022-07-26T20:36:54.792Z,21.96
2022-07-26T20:39:27.461Z,21.86
2022-07-26T20:41:58.746Z,21.79
2022-07-26T20:44:31.968Z,21.70
2022-07-26T20:47:02.507Z,21.59
2022-07-26T20:49:33.151Z,21.56
2022-07-26T20:52:06.223Z,21.50
2022-07-26T20:54:36.895Z,21.41
2022-07-26T20:57:07.492Z,21.38
2022-07-26T20:59:39.434Z,21.34
2022-07-26T21:02:10.217Z,21.28
2022-07-26T21:04:40.734Z,21.25
2022-07-26T21:07:11.298Z,21.18
2022-07-26T21:09:42.499Z,21.16
2022-07-26T21:12:13.163Z,21.09
2022-07-26T21:14:43.746Z,21.12
2022-07-26T21:17:14.347Z,21.01
2022-07-26T21:19:44.953Z,20.98
2022-07-26T21:22:15.735Z,20.98
2022-07-26T21:24:46.208Z,20.92
2022-07-26T21:27:17.053Z,20.90
2022-07-26T21:29:47.607Z,20.90
2022-07-26T21:32:18.746Z,20.81
2022-07-26T21:34:49.313Z,20.77
2022-07-26T21:37:20.476Z,20.73
2022-07-26T21:39:51.265Z,20.63
2022-07-26T21:42:21.877Z,20.54
2022-07-26T21:44:57.419Z,20.50
2022-07-26T21:47:28.142Z,20.47
2022-07-26T21:49:58.536Z,20.44
2022-07-26T21:52:29.188Z,20.47
2022-07-26T21:54:59.723Z,20.51
2022-07-26T21:57:30.346Z,20.53
2022-07-26T22:00:00.841Z,20.56
2022-07-26T22:02:31.426Z,20.53
2022-07-26T22:05:02.450Z,20.57
2022-07-26T22:07:32.991Z,20.53
2022-07-26T22:10:03.508Z,20.54
2022-07-26T22:12:34.083Z,20.50
2022-07-26T22:15:04.546Z,20.41
2022-07-26T22:17:35.835Z,20.34
2022-07-26T22:20:08.369Z,20.26
2022-07-26T22:22:39.502Z,20.23
2022-07-26T22:25:10.484Z,20.22
2022-07-26T22:27:41.034Z,20.16
2022-07-26T22:30:12.777Z,20.15
2022-07-26T22:32:44.236Z,20.12
2022-07-26T22:35:14.986Z,20.08
2022-07-26T22:37:46.011Z,20.08
2022-07-26T22:40:16.934Z,20.03
2022-07-26T22:42:48.474Z,20.00
2022-07-26T22:45:19.000Z,19.95
2022-07-26T22:47:56.461Z,19.90
2022-07-26T22:50:27.673Z,19.90
2022-07-26T22:52:58.575Z,19.89
2022-07-26T22:55:29.766Z,19.85
2022-07-26T22:58:00.560Z,19.81
2022-07-26T23:00:31.363Z,19.81
2022-07-26T23:03:02.127Z,19.76
2022-07-26T23:05:45.883Z,19.75
2022-07-26T23:11:08.514Z,19.62
2022-07-26T23:13:39.003Z,19.61
2022-07-26T23:16:09.572Z,19.58
2022-07-26T23:18:40.120Z,19.54
2022-07-26T23:21:10.616Z,19.51
2022-07-26T23:23:41.177Z,19.52
2022-07-26T23:26:11.770Z,19.54
2022-07-26T23:28:42.224Z,19.51
2022-07-26T23:31:14.048Z,19.48
2022-07-26T23:33:52.441Z,19.44
2022-07-26T23:36:29.160Z,19.45
2022-07-26T23:39:02.310Z,19.39
2022-07-26T23:41:42.338Z,19.39
2022-07-26T23:44:12.894Z,19.35
2022-07-26T23:46:43.488Z,19.28
2022-07-26T23:49:14.460Z,19.21
2022-07-26T23:51:45.313Z,19.14
2022-07-26T23:54:15.812Z,19.18
2022-07-26T23:56:46.884Z,19.17
2022-07-26T23:59:17.619Z,19.14
